createdAt,value
2022-11-08T00:00:56.697Z,12.40
2022-11-08T00:04:00.057Z,13.25
2022-11-08T00:07:21.227Z,14.00
2022-11-08T00:10:41.993Z,15.00
2022-11-08T00:13:58.545Z,13.40
2022-11-08T00:17:01.810Z,13.00
2022-11-08T00:20:05.752Z,14.00
2022-11-08T00:23:08.998Z,12.40
2022-11-08T00:26:12.205Z,12.00
2022-11-08T00:29:17.043Z,16.00
2022-11-08T00:32:22.565Z,13.40
2022-11-08T00:35:25.804Z,14.00
2022-11-08T00:38:29.276Z,15.50
2022-11-08T00:41:32.597Z,15.50
2022-11-08T00:44:37.756Z,14.00
2022-11-08T00:47:41.261Z,16.00
2022-11-08T00:50:44.868Z,15.00
2022-11-08T00:53:48.354Z,14.00
2022-11-08T00:56:51.896Z,13.00
2022-11-08T00:59:56.541Z,13.00
2022-11-08T01:03:13.722Z,15.80
2022-11-08T01:06:19.306Z,16.00
2022-11-08T01:09:22.880Z,13.40
2022-11-08T01:12:26.193Z,13.00
2022-11-08T01:15:36.221Z,14.00
2022-11-08T01:18:40.296Z,13.00
2022-11-08T01:21:43.939Z,14.40
2022-11-08T01:24:47.216Z,15.00
2022-11-08T01:27:50.497Z,14.20
2022-11-08T01:30:55.603Z,13.00
2022-11-08T01:33:59.550Z,13.80
2022-11-08T01:37:02.865Z,12.50
2022-11-08T01:40:07.294Z,12.00
2022-11-08T01:43:43.258Z,13.33
2022-11-08T01:46:48.713Z,14.00
2022-11-08T01:49:56.403Z,13.00
2022-11-08T01:52:59.690Z,14.50
2022-11-08T01:56:03.826Z,13.00
2022-11-08T01:59:10.651Z,13.00
2022-11-08T02:02:15.676Z,14.00
2022-11-08T02:05:27.069Z,13.00
2022-11-08T02:08:34.564Z,12.00
2022-11-08T02:11:38.245Z,14.00
2022-11-08T02:14:41.506Z,15.00
2022-11-08T02:17:46.317Z,14.00
2022-11-08T02:20:59.679Z,16.00
2022-11-08T02:24:09.316Z,13.60
2022-11-08T02:27:14.624Z,12.50
2022-11-08T02:30:17.975Z,16.80
2022-11-08T02:33:23.649Z,17.00
2022-11-08T02:36:27.513Z,12.25
2022-11-08T02:39:33.093Z,15.00
2022-11-08T02:42:39.426Z,13.00
2022-11-08T02:45:42.696Z,10.50
2022-11-08T02:48:45.923Z,13.00
2022-11-08T02:51:49.240Z,14.80
2022-11-08T02:54:54.121Z,14.00
2022-11-08T02:57:57.658Z,12.60
2022-11-08T03:01:01.384Z,14.60
2022-11-08T03:04:04.784Z,15.00
2022-11-08T03:07:08.038Z,13.00
2022-11-08T03:10:13.624Z,12.00
2022-11-08T03:13:16.894Z,12.25
2022-11-08T03:16:20.504Z,13.00
2022-11-08T03:19:23.757Z,12.40
2022-11-08T03:22:27.122Z,13.50
2022-11-08T03:25:32.131Z,11.00
2022-11-08T03:28:35.320Z,13.00
2022-11-08T03:31:38.547Z,12.00
2022-11-08T03:34:41.789Z,12.00
2022-11-08T03:37:51.808Z,12.00
2022-11-08T03:40:56.713Z,12.33
2022-11-08T03:43:59.993Z,12.75
2022-11-08T03:47:03.553Z,10.00
2022-11-08T03:50:08.009Z,14.40
2022-11-08T03:53:11.165Z,11.80
2022-11-08T03:56:15.912Z,12.00
2022-11-08T03:59:19.136Z,13.00
2022-11-08T04:02:22.657Z,12.20
2022-11-08T04:05:25.892Z,12.00
2022-11-08T04:08:29.646Z,12.00
2022-11-08T04:11:51.711Z,12.00
2022-11-08T04:15:12.225Z,12.60
2022-11-08T04:18:32.687Z,10.00
2022-11-08T04:21:36.014Z,11.00
2022-11-08T04:24:39.413Z,9.00
2022-11-08T04:27:43.968Z,9.00
2022-11-08T04:30:47.290Z,11.00
2022-11-08T04:33:50.713Z,11.00
2022-11-08T04:36:54.059Z,10.00
2022-11-08T04:39:57.570Z,10.50
2022-11-08T04:43:02.493Z,11.00
2022-11-08T04:46:07.615Z,11.00
2022-11-08T04:49:10.808Z,9.00
2022-11-08T04:52:14.222Z,11.00
2022-11-08T04:55:17.651Z,11.00
2022-11-08T04:58:22.436Z,9.80
2022-11-08T05:01:28.040Z,11.00
2022-11-08T05:04:31.392Z,7.75
2022-11-08T05:07:34.959Z,11.00
2022-11-08T05:10:38.221Z,11.00
2022-11-08T05:13:43.649Z,9.50
2022-11-08T05:16:46.860Z,10.50
2022-11-08T05:20:07.305Z,11.00
2022-11-08T05:23:26.360Z,10.60
2022-11-08T05:26:30.419Z,11.25
2022-11-08T05:29:38.643Z,11.00
2022-11-08T05:32:45.262Z,11.00
2022-11-08T05:35:48.951Z,10.00
2022-11-08T05:38:52.247Z,10.40
2022-11-08T05:41:55.917Z,11.00
2022-11-08T05:45:05.158Z,12.00
2022-11-08T05:48:11.450Z,10.00
2022-11-08T05:51:15.854Z,10.00
2022-11-08T05:54:19.049Z,11.00
2022-11-08T05:57:23.607Z,8.60
2022-11-08T06:00:28.523Z,11.60
2022-11-08T06:03:32.213Z,12.00
2022-11-08T06:06:36.061Z,11.60
2022-11-08T06:09:40.158Z,10.00
2022-11-08T06:12:43.492Z,10.00
2022-11-08T06:15:48.076Z,11.00
2022-11-08T06:18:51.346Z,12.00
2022-11-08T06:21:54.691Z,13.00
2022-11-08T06:24:58.303Z,12.00
2022-11-08T06:28:01.918Z,9.50
2022-11-08T06:31:07.053Z,11.00
2022-11-08T06:34:10.835Z,10.00
2022-11-08T06:37:14.203Z,11.00
2022-11-08T06:40:17.969Z,11.00
2022-11-08T06:43:21.833Z,10.20
2022-11-08T06:46:27.396Z,9.00
2022-11-08T06:49:30.673Z,10.00
2022-11-08T06:52:34.749Z,10.00
2022-11-08T06:55:38.159Z,9.00
2022-11-08T06:58:41.335Z,14.00
2022-11-08T07:01:46.226Z,12.00
2022-11-08T07:04:49.639Z,12.00
2022-11-08T07:07:53.154Z,11.40
2022-11-08T07:10:56.699Z,10.00
2022-11-08T07:13:59.842Z,11.00
2022-11-08T07:17:04.535Z,14.00
2022-11-08T07:20:08.782Z,10.60
2022-11-08T07:23:13.310Z,11.33
2022-11-08T07:26:16.731Z,13.00
2022-11-08T07:29:20.270Z,14.00
2022-11-08T07:32:24.928Z,12.20
2022-11-08T07:35:29.650Z,15.00
2022-11-08T07:38:32.957Z,13.40
2022-11-08T07:41:36.325Z,15.00
2022-11-08T07:44:39.593Z,14.20
2022-11-08T07:47:44.763Z,18.00
2022-11-08T07:50:48.116Z,20.00
2022-11-08T07:53:51.409Z,19.00
2022-11-08T07:56:54.940Z,18.00
2022-11-08T07:59:59.874Z,17.50
2022-11-08T08:03:07.716Z,18.00
2022-11-08T08:06:11.135Z,18.25
2022-11-08T08:09:14.553Z,16.80
2022-11-08T08:12:17.765Z,18.40
2022-11-08T08:15:21.338Z,16.00
2022-11-08T08:18:25.897Z,15.00
2022-11-08T08:21:29.165Z,18.40
2022-11-08T08:24:32.469Z,15.00
2022-11-08T08:27:35.969Z,13.80
2022-11-08T08:30:40.873Z,15.00
2022-11-08T08:33:45.575Z,14.75
2022-11-08T08:36:48.902Z,14.00
2022-11-08T08:39:52.515Z,13.00
2022-11-08T08:42:56.621Z,14.40
2022-11-08T08:46:01.694Z,13.80
2022-11-08T08:49:06.278Z,13.00
2022-11-08T08:52:09.609Z,16.00
2022-11-08T08:55:13.057Z,17.00
2022-11-08T08:58:16.633Z,12.80
2022-11-08T09:04:44.363Z,19.00
2022-11-08T09:07:47.895Z,18.00
2022-11-08T09:10:54.781Z,18.60
2022-11-08T09:13:58.101Z,17.00
2022-11-08T09:17:01.638Z,17.00
2022-11-08T09:20:06.798Z,16.60
2022-11-08T09:23:11.605Z,16.67
2022-11-08T09:26:14.891Z,12.60
2022-11-08T09:29:18.157Z,16.00
2022-11-08T09:32:33.326Z,10.00
2022-11-08T09:35:47.066Z,8.00
2022-11-08T09:38:50.282Z,8.60
2022-11-08T09:42:22.697Z,3.00
2022-11-08T09:45:29.304Z,2.00
2022-11-08T09:48:36.535Z,1.00
2022-11-08T09:51:42.331Z,2.00
2022-11-08T09:54:49.012Z,3.00
2022-11-08T09:58:04.138Z,2.00
2022-11-08T10:01:11.926Z,1.00
2022-11-08T10:04:18.359Z,2.00
2022-11-08T10:07:34.247Z,1.40
2022-11-08T10:10:45.711Z,3.00
2022-11-08T10:14:03.880Z,8.40
2022-11-08T10:17:25.426Z,9.00
2022-11-08T10:20:40.330Z,4.00
2022-11-08T10:23:47.565Z,3.00
2022-11-08T10:26:54.034Z,5.00
2022-11-08T10:30:02.431Z,3.20
2022-11-08T10:33:17.796Z,4.40
2022-11-08T10:36:28.843Z,2.00
2022-11-08T10:39:42.309Z,4.00
2022-11-08T10:42:49.046Z,2.00
2022-11-08T10:45:52.463Z,2.00
2022-11-08T10:48:59.260Z,3.00
2022-11-08T10:52:19.366Z,3.00
2022-11-08T10:55:31.078Z,2.00
2022-11-08T10:58:39.479Z,1.00
2022-11-08T11:01:52.120Z,1.00
2022-11-08T11:05:22.257Z,1.00
2022-11-08T11:08:25.695Z,1.25
2022-11-08T11:11:38.641Z,2.00
2022-11-08T11:14:42.100Z,1.00
2022-11-08T11:17:46.652Z,1.00
2022-11-08T11:21:07.691Z,1.00
2022-11-08T11:24:16.551Z,1.00
2022-11-08T11:27:27.208Z,1.00
2022-11-08T11:30:32.992Z,0.00
2022-11-08T11:33:45.453Z,1.00
2022-11-08T11:36:54.532Z,1.00
2022-11-08T11:40:17.224Z,1.00
2022-11-08T11:43:28.672Z,1.00
2022-11-08T11:46:48.676Z,1.00
2022-11-08T11:49:53.653Z,1.00
2022-11-08T11:52:57.717Z,1.00
2022-11-08T11:56:36.197Z,1.00
2022-11-08T12:00:04.647Z,1.00
2022-11-08T12:03:39.899Z,1.00
2022-11-08T12:06:53.190Z,2.00
2022-11-08T12:10:13.363Z,2.00
2022-11-08T12:13:26.002Z,2.25
2022-11-08T12:16:38.418Z,2.00
2022-11-08T12:19:56.941Z,2.60
2022-11-08T12:23:21.945Z,2.00
2022-11-08T12:26:30.804Z,2.00
2022-11-08T12:29:44.784Z,2.00
2022-11-08T12:33:17.442Z,1.00
2022-11-08T12:36:28.627Z,1.00
2022-11-08T12:39:38.988Z,2.00
2022-11-08T12:43:01.768Z,2.00
2022-11-08T12:46:13.084Z,2.00
2022-11-08T12:49:38.999Z,2.00
2022-11-08T12:52:56.538Z,2.00
2022-11-08T12:56:05.313Z,3.00
2022-11-08T12:59:19.563Z,2.00
2022-11-08T13:02:25.541Z,2.75
2022-11-08T13:05:36.943Z,2.80
2022-11-08T13:08:48.039Z,2.40
2022-11-08T13:12:01.369Z,2.00
2022-11-08T13:15:17.484Z,3.00
2022-11-08T13:18:34.294Z,4.00
2022-11-08T13:21:42.273Z,3.00
2022-11-08T13:24:46.051Z,4.80
2022-11-08T13:27:50.332Z,3.00
2022-11-08T13:31:02.560Z,3.20
2022-11-08T13:34:20.391Z,4.00
2022-11-08T13:37:43.918Z,4.00
2022-11-08T13:41:12.406Z,3.25
2022-11-08T13:44:48.929Z,3.00
2022-11-08T13:47:58.635Z,3.80
2022-11-08T13:51:29.421Z,4.00
2022-11-08T13:54:51.044Z,2.25
2022-11-08T13:58:00.718Z,4.00
2022-11-08T14:01:06.728Z,4.00
2022-11-08T14:04:26.049Z,4.00
2022-11-08T14:07:34.417Z,4.00
2022-11-08T14:11:04.078Z,4.00
2022-11-08T14:14:45.963Z,2.40
2022-11-08T14:17:53.994Z,4.00
2022-11-08T14:20:57.759Z,4.00
2022-11-08T14:24:01.272Z,3.20
2022-11-08T14:27:05.978Z,5.00
2022-11-08T14:30:17.104Z,3.20
2022-11-08T14:33:22.952Z,4.60
2022-11-08T14:36:28.672Z,3.60
2022-11-08T14:39:34.625Z,6.00
2022-11-08T14:42:45.882Z,5.00
2022-11-08T14:45:49.881Z,4.00
2022-11-08T14:48:55.692Z,4.00
2022-11-08T14:52:22.700Z,4.00
2022-11-08T14:55:26.810Z,5.00
2022-11-08T14:58:31.549Z,4.00
2022-11-08T15:01:36.560Z,6.00
2022-11-08T15:04:42.088Z,6.25
2022-11-08T15:07:47.928Z,5.80
2022-11-08T15:11:00.107Z,7.20
2022-11-08T15:14:07.449Z,6.00
2022-11-08T15:17:31.577Z,6.00
2022-11-08T15:20:35.334Z,7.80
2022-11-08T15:23:44.705Z,9.00
2022-11-08T15:27:17.234Z,8.75
2022-11-08T15:30:23.471Z,7.00
2022-11-08T15:33:30.699Z,7.00
2022-11-08T15:36:37.111Z,7.40
2022-11-08T15:39:41.448Z,5.60
2022-11-08T15:42:46.363Z,6.00
2022-11-08T15:45:55.135Z,8.00
2022-11-08T15:48:59.891Z,8.40
2022-11-08T15:52:03.745Z,10.00
2022-11-08T15:55:08.266Z,9.00
2022-11-08T15:58:16.696Z,9.00
2022-11-08T16:01:23.061Z,8.00
2022-11-08T16:04:26.582Z,9.00
2022-11-08T16:07:29.824Z,8.00
2022-11-08T16:10:36.636Z,10.00
2022-11-08T16:13:40.583Z,10.00
2022-11-08T16:16:45.679Z,9.00
2022-11-08T16:19:48.904Z,9.00
2022-11-08T16:22:52.546Z,7.00
2022-11-08T16:25:57.738Z,7.00
2022-11-08T16:29:01.111Z,9.00
2022-11-08T16:32:06.205Z,8.00
2022-11-08T16:35:10.968Z,9.00
2022-11-08T16:38:14.325Z,9.60
2022-11-08T16:41:17.706Z,8.00
2022-11-08T16:44:20.913Z,9.40
2022-11-08T16:47:27.023Z,8.00
2022-11-08T16:50:30.546Z,10.00
2022-11-08T16:53:34.118Z,9.00
2022-11-08T16:56:37.552Z,5.60
2022-11-08T16:59:40.904Z,10.00
2022-11-08T17:02:49.289Z,10.80
2022-11-08T17:05:54.012Z,8.00
2022-11-08T17:08:58.289Z,6.80
2022-11-08T17:12:01.577Z,11.00
2022-11-08T17:15:05.519Z,9.60
2022-11-08T17:18:13.156Z,10.00
2022-11-08T17:21:43.262Z,7.25
2022-11-08T17:24:40.347Z,9.60
2022-11-08T17:27:43.978Z,9.00
2022-11-08T17:30:47.201Z,8.00
2022-11-08T17:33:52.458Z,9.25
2022-11-08T17:36:56.117Z,9.00
2022-11-08T17:39:59.678Z,10.00
2022-11-08T17:43:03.042Z,7.00
2022-11-08T17:46:07.991Z,9.00
2022-11-08T17:49:12.600Z,8.60
2022-11-08T17:52:16.207Z,10.00
2022-11-08T17:55:19.445Z,9.00
2022-11-08T17:58:23.190Z,10.00
2022-11-08T18:01:26.588Z,8.60
2022-11-08T18:04:31.642Z,8.60
2022-11-08T18:07:34.990Z,10.00
2022-11-08T18:10:38.562Z,11.00
2022-11-08T18:13:42.302Z,10.00
2022-11-08T18:16:45.551Z,9.80
2022-11-08T18:19:50.520Z,9.00
2022-11-08T18:22:54.821Z,9.00
2022-11-08T18:25:58.302Z,9.60
2022-11-08T18:29:02.557Z,10.00
2022-11-08T18:32:06.464Z,13.40
2022-11-08T18:35:12.163Z,11.60
2022-11-08T18:38:15.777Z,11.40
2022-11-08T18:41:22.395Z,10.00
2022-11-08T18:44:25.919Z,12.60
2022-11-08T18:47:29.180Z,12.80
2022-11-08T18:50:34.106Z,13.80
2022-11-08T18:53:37.450Z,12.25
2022-11-08T18:56:40.737Z,13.00
2022-11-08T18:59:44.021Z,15.80
2022-11-08T19:02:47.442Z,13.40
2022-11-08T19:05:52.669Z,14.40
2022-11-08T19:08:57.720Z,13.40
2022-11-08T19:12:05.723Z,14.00
2022-11-08T19:15:10.515Z,12.00
2022-11-08T19:18:13.785Z,11.80
2022-11-08T19:21:20.326Z,13.00
2022-11-08T19:24:23.864Z,14.40
2022-11-08T19:27:27.091Z,12.00
2022-11-08T19:30:30.584Z,11.25
2022-11-08T19:33:35.145Z,15.00
2022-11-08T19:36:43.542Z,11.20
2022-11-08T19:39:46.993Z,15.00
2022-11-08T19:42:50.704Z,15.25
2022-11-08T19:45:55.380Z,16.00
2022-11-08T19:49:00.703Z,18.00
2022-11-08T19:52:05.543Z,15.50
2022-11-08T19:55:09.397Z,13.80
2022-11-08T19:58:12.735Z,18.00
2022-11-08T20:01:19.280Z,16.00
2022-11-08T20:04:22.663Z,14.80
2022-11-08T20:07:27.345Z,14.75
2022-11-08T20:10:30.581Z,16.60
2022-11-08T20:13:34.824Z,13.00
2022-11-08T20:16:42.006Z,16.60
2022-11-08T20:19:46.692Z,15.25
2022-11-08T20:22:51.300Z,16.40
2022-11-08T20:25:54.808Z,18.40
2022-11-08T20:28:58.168Z,16.00
2022-11-08T20:32:01.394Z,16.00
2022-11-08T20:35:05.244Z,17.20
2022-11-08T20:38:09.948Z,17.40
2022-11-08T20:41:15.516Z,19.00
2022-11-08T20:44:20.275Z,17.00
2022-11-08T20:47:23.969Z,18.40
2022-11-08T20:50:27.522Z,19.00
2022-11-08T20:53:35.107Z,16.00
2022-11-08T20:56:38.604Z,16.20
2022-11-08T20:59:41.818Z,17.60
2022-11-08T21:02:45.251Z,17.00
2022-11-08T21:05:52.932Z,18.00
2022-11-08T21:09:02.707Z,18.60
2022-11-08T21:12:13.553Z,20.00
2022-11-08T21:15:17.268Z,17.00
2022-11-08T21:18:21.350Z,20.00
2022-11-08T21:21:24.856Z,20.00
2022-11-08T21:24:29.685Z,20.00
2022-11-08T21:27:37.118Z,19.00
2022-11-08T21:30:40.315Z,18.40
2022-11-08T21:33:43.720Z,21.50
2022-11-08T21:36:47.112Z,20.00
2022-11-08T21:39:52.057Z,17.00
2022-11-08T21:42:55.781Z,20.00
2022-11-08T21:45:58.945Z,19.00
2022-11-08T21:49:03.398Z,18.40
2022-11-08T21:52:06.887Z,18.00
2022-11-08T21:55:12.857Z,18.00
2022-11-08T21:58:16.242Z,18.60
2022-11-08T22:01:21.534Z,19.00
2022-11-08T22:04:27.600Z,20.00
2022-11-08T22:07:30.865Z,19.20
2022-11-08T22:10:35.531Z,17.00
2022-11-08T22:13:38.733Z,19.00
2022-11-08T22:16:42.107Z,17.00
2022-11-08T22:19:45.373Z,19.80
2022-11-08T22:22:48.600Z,20.00
2022-11-08T22:25:53.257Z,19.00
2022-11-08T22:28:56.797Z,17.20
2022-11-08T22:32:00.259Z,18.00
2022-11-08T22:35:03.490Z,18.00
2022-11-08T22:38:06.705Z,19.00
2022-11-08T22:41:11.249Z,18.00
2022-11-08T22:44:15.227Z,17.00
2022-11-08T22:47:18.537Z,18.25
2022-11-08T22:50:21.789Z,15.20
2022-11-08T22:53:25.508Z,18.20
2022-11-08T22:56:30.216Z,19.00
2022-11-08T22:59:33.586Z,20.00
2022-11-08T23:02:37.010Z,21.40
2022-11-08T23:05:40.164Z,22.00
2022-11-08T23:08:43.778Z,22.00
2022-11-08T23:12:06.187Z,20.00
2022-11-08T23:15:29.115Z,22.00
2022-11-08T23:18:32.329Z,20.00
2022-11-08T23:21:52.944Z,22.00
2022-11-08T23:24:56.295Z,22.00
2022-11-08T23:28:18.606Z,22.00
2022-11-08T23:31:36.951Z,23.00
2022-11-08T23:34:40.273Z,23.00
2022-11-08T23:37:44.157Z,23.00
2022-11-08T23:41:04.980Z,24.00
2022-11-08T23:44:25.493Z,24.00
2022-11-08T23:47:28.819Z,23.00
2022-11-08T23:50:32.122Z,23.00
2022-11-08T23:53:37.826Z,22.00
2022-11-08T23:56:41.343Z,23.25
2022-11-08T23:59:46.253Z,22.00
